Aviation Digital Data Service (ADDS)

Output produced by TAFs form (0956 UTC 23 April 2017)
found at http://www.aviationweather.gov/adds/tafs/
 
METAR text: RJOT 230900Z 09004KT CAVOK 17/03 Q1017
Conditions at: RJOT (TAKAMATSU AIRPOR, JP) observed 0900 UTC 23 April 2017
Temperature: 17.0°C (63°F)
Dewpoint: 3.0°C (37°F) [RH = 39%]
Pressure (altimeter): 30.03 inches Hg (1017.0 mb)
Winds: from the E (90 degrees) at 5 MPH (4 knots; 2.1 m/s)
Visibility: 6 or more miles (10+ km)
Ceiling: ceiling and visibility are OK
Clouds: unknown
Weather: no significant weather observed at this time

Forecast for: RJOT (TAKAMATSU AIRPOR, JP)
Text: TAF RJOT 230506Z 2306/2412 06007KT CAVOK
Forecast period: 0600 UTC 23 April 2017 to 1200 UTC 24 April 2017
Forecast type: FROM: standard forecast or significant change
Winds: from the ENE (60 degrees) at 8 MPH (7 knots; 3.6 m/s)
Visibility: 6 or more miles (10+ km)
Clouds: not forecast
Weather: NSW  (no significant weather)